Time;durP1;ratioP1;P1;durP2;ratioP2;P2;SDS_P1;SDS_P2;PMS_P1;PMS_P2;Temp;Humidity;BMP_temperature;BMP_pressure;BME280_temperature;BME280_humidity;BME280_pressure;Samples;Min_cycle;Max_cycle;Signal;HPM_P1;HPM_P2
2021/06/04 00:01:05;;;;;;;5.65;3.78;;;;;;;21.02;64.68;100197.50;2218475;40;20033;-78
2021/06/04 00:02:37;;;;;;;5.20;3.47;;;;;;;21.08;64.53;100197.69;2217080;40;20127;-78
2021/06/04 00:04:08;;;;;;;7.60;4.10;;;;;;;21.14;64.48;100213.16;2214190;40;20049;-77
2021/06/04 00:05:42;;;;;;;5.72;3.40;;;;;;;21.22;64.23;100207.50;2215815;40;20132;-78
2021/06/04 00:07:14;;;;;;;5.75;3.63;;;;;;;21.27;64.10;100199.53;2213429;40;20052;-78
2021/06/04 00:08:46;;;;;;;7.45;4.25;;;;;;;21.30;64.13;100198.31;2216813;40;20086;-79
2021/06/04 00:10:23;;;;;;;6.13;3.72;;;;;;;21.28;64.15;100195.78;2217085;40;20097;-79
2021/06/04 00:11:57;;;;;;;5.57;3.42;;;;;;;21.30;63.99;100196.41;2214795;40;20033;-78
2021/06/04 00:13:31;;;;;;;8.88;4.50;;;;;;;21.32;64.13;100191.59;2212561;40;20061;-78
2021/06/04 00:15:08;;;;;;;6.57;4.03;;;;;;;21.31;64.17;100189.91;2214895;40;20034;-78
2021/06/04 00:16:43;;;;;;;7.93;4.68;;;;;;;21.30;64.02;100185.53;2214078;40;20046;-79
2021/06/04 00:18:15;;;;;;;8.02;4.40;;;;;;;21.20;64.33;100190.56;2214739;40;20057;-78
2021/06/04 00:19:47;;;;;;;7.00;3.90;;;;;;;21.15;64.17;100202.06;2213363;40;20053;-78
2021/06/04 00:21:24;;;;;;;5.60;3.97;;;;;;;21.17;64.33;100199.13;2214703;40;20045;-78
2021/06/04 00:22:55;;;;;;;10.48;4.22;;;;;;;21.14;64.40;100196.84;2213184;40;20047;-78
2021/06/04 00:24:26;;;;;;;6.15;4.07;;;;;;;21.12;64.62;100201.66;2214535;40;20033;-78
2021/06/04 00:25:59;;;;;;;6.18;3.53;;;;;;;21.12;64.30;100201.66;2216306;40;20049;-78
2021/06/04 00:27:30;;;;;;;5.50;3.70;;;;;;;21.14;64.02;100200.41;2220520;40;20222;-78
2021/06/04 00:29:01;;;;;;;6.38;3.95;;;;;;;21.13;64.04;100193.28;2220297;40;20498;-79
2021/06/04 00:30:34;;;;;;;7.80;4.00;;;;;;;21.09;63.88;100200.22;2220724;40;20024;-78
2021/06/04 00:32:07;;;;;;;5.95;3.40;;;;;;;21.08;63.78;100200.41;2214222;40;20037;-78
2021/06/04 00:33:38;;;;;;;6.35;4.13;;;;;;;21.06;64.21;100188.94;2212159;40;20038;-79
2021/06/04 00:35:11;;;;;;;6.72;3.90;;;;;;;20.98;63.96;100195.41;2212591;40;20134;-78
2021/06/04 00:36:43;;;;;;;6.90;3.85;;;;;;;20.85;64.71;100191.63;2215040;40;20041;-79
2021/06/04 00:38:14;;;;;;;6.45;3.85;;;;;;;20.76;65.30;100202.94;2219767;40;20049;-78
2021/06/04 00:39:46;;;;;;;7.43;4.18;;;;;;;20.67;65.18;100200.38;2218843;40;20052;-78
2021/06/04 00:41:21;;;;;;;6.13;4.13;;;;;;;20.59;65.76;100195.16;2213806;40;20034;-79
2021/06/04 00:42:53;;;;;;;6.18;4.03;;;;;;;20.53;66.12;100198.69;2213651;40;20165;-79
2021/06/04 00:44:25;;;;;;;7.80;3.90;;;;;;;20.54;66.00;100194.94;2220763;40;20056;-79
2021/06/04 00:46:00;;;;;;;8.75;3.78;;;;;;;20.56;65.96;100188.25;2219584;40;20041;-79
2021/06/04 00:47:31;;;;;;;7.00;4.43;;;;;;;20.58;65.88;100188.88;2213937;40;20042;-79
2021/06/04 00:49:02;;;;;;;6.57;4.53;;;;;;;20.57;66.03;100189.91;2214049;40;20045;-79
2021/06/04 00:50:37;;;;;;;7.60;4.10;;;;;;;20.54;65.99;100195.78;2214753;40;20046;-79
2021/06/04 00:52:12;;;;;;;8.00;4.10;;;;;;;20.51;66.29;100195.34;2213822;40;20045;-79
2021/06/04 00:53:45;;;;;;;7.38;4.50;;;;;;;20.49;66.27;100198.25;2216499;40;20037;-79
2021/06/04 00:55:19;;;;;;;6.35;4.20;;;;;;;20.53;66.04;100199.53;2216265;40;20053;-82
2021/06/04 00:56:52;;;;;;;7.70;4.32;;;;;;;20.54;65.99;100189.50;2220780;40;20454;-82
2021/06/04 00:58:26;;;;;;;6.03;3.90;;;;;;;20.55;65.88;100197.44;2212809;40;20046;-81
2021/06/04 01:00:02;;;;;;;7.15;4.00;;;;;;;20.51;66.08;100190.75;2212114;40;20135;-80
2021/06/04 01:01:36;;;;;;;6.68;4.18;;;;;;;20.47;65.99;100194.09;2212212;40;20049;-80
2021/06/04 01:03:08;;;;;;;6.70;4.47;;;;;;;20.45;66.43;100190.75;2216237;40;20135;-80
2021/06/04 01:04:40;;;;;;;7.15;4.72;;;;;;;20.41;66.34;100193.84;2214744;40;20052;-79
2021/06/04 01:06:20;;;;;;;6.65;4.35;;;;;;;20.38;66.84;100186.16;2215804;40;20042;-79
2021/06/04 01:08:05;;;;;;;5.10;3.67;;;;;;;20.35;66.60;100186.53;2218716;40;20606;-79
2021/06/04 01:10:00;;;;;;;6.00;3.65;;;;;;;20.35;66.73;100185.72;2221105;40;20041;-79
2021/06/04 01:11:45;;;;;;;5.80;3.55;;;;;;;20.37;66.58;100183.63;2215938;40;20065;-79
2021/06/04 01:13:22;;;;;;;6.40;3.55;;;;;;;20.40;66.85;100184.03;2215116;40;20045;-80
2021/06/04 01:15:08;;;;;;;4.95;3.42;;;;;;;20.45;66.51;100188.03;2220425;40;20033;-79
2021/06/04 01:16:51;;;;;;;6.38;4.90;;;;;;;20.46;66.50;100187.00;2220032;40;20033;-79
2021/06/04 01:18:37;;;;;;;7.40;4.68;;;;;;;20.39;66.92;100185.09;2220443;40;20356;-79
2021/06/04 01:20:16;;;;;;;8.55;5.22;;;;;;;20.29;67.39;100187.38;2212396;40;20108;-79
2021/06/04 01:21:51;;;;;;;8.40;5.13;;;;;;;20.21;67.82;100184.88;2209806;40;20030;-79
2021/06/04 01:23:42;;;;;;;5.93;4.03;;;;;;;20.17;67.67;100194.44;2215999;40;20349;-80
2021/06/04 01:25:43;;;;;;;8.60;4.88;;;;;;;20.13;67.87;100187.72;2216643;40;20049;-78
2021/06/04 01:27:17;;;;;;;8.73;4.45;;;;;;;20.08;67.78;100183.78;2214896;40;20267;-79
2021/06/04 01:28:52;;;;;;;6.88;4.13;;;;;;;20.08;67.27;100197.34;2219378;40;20044;-80
2021/06/04 01:30:29;;;;;;;8.48;3.78;;;;;;;20.07;67.01;100195.66;2220686;40;20123;-80
2021/06/04 01:32:05;;;;;;;7.80;4.10;;;;;;;20.06;66.53;100198.59;2220937;40;20041;-80
2021/06/04 01:33:40;;;;;;;5.47;3.30;;;;;;;19.99;66.85;100197.72;2222793;40;20037;-80
2021/06/04 01:35:15;;;;;;;5.55;4.10;;;;;;;19.92;66.65;100197.72;2221022;40;20041;-80
2021/06/04 01:36:51;;;;;;;6.78;4.32;;;;;;;19.85;66.70;100202.22;2221200;40;20034;-79
2021/06/04 01:38:29;;;;;;;6.35;3.80;;;;;;;19.78;66.87;100191.34;2218939;40;20505;-78
2021/06/04 01:40:04;;;;;;;6.40;3.78;;;;;;;19.78;67.09;100197.59;2215720;40;20059;-79
2021/06/04 01:41:39;;;;;;;7.05;3.80;;;;;;;19.78;67.27;100205.75;2218964;40;20033;-79
2021/06/04 01:43:14;;;;;;;9.20;4.20;;;;;;;19.73;67.14;100200.09;2219107;40;20052;-80
2021/06/04 01:44:50;;;;;;;7.50;4.70;;;;;;;19.73;67.74;100205.53;2220311;40;20029;-79
2021/06/04 01:46:32;;;;;;;6.18;4.43;;;;;;;19.68;67.62;100202.56;2217826;40;20049;-79
2021/06/04 01:48:10;;;;;;;5.82;4.28;;;;;;;19.62;67.99;100209.63;2218542;40;20133;-79
2021/06/04 01:49:45;;;;;;;7.10;4.72;;;;;;;19.57;68.17;100211.25;2213942;40;20085;-79
2021/06/04 01:51:22;;;;;;;5.20;3.92;;;;;;;19.52;68.75;100213.75;2211739;40;20045;-78
2021/06/04 01:52:56;;;;;;;6.07;4.85;;;;;;;19.48;69.19;100213.31;2214085;40;20068;-78
2021/06/04 01:54:33;;;;;;;7.20;4.78;;;;;;;19.42;69.44;100205.97;2214329;40;20037;-78
2021/06/04 01:56:09;;;;;;;7.00;4.68;;;;;;;19.38;69.38;100208.22;2208915;40;20129;-78
2021/06/04 01:57:47;;;;;;;9.65;5.10;;;;;;;19.35;69.95;100207.78;2213869;40;20029;-78
2021/06/04 01:59:22;;;;;;;6.68;5.15;;;;;;;19.30;69.96;100211.94;2216798;40;20594;-78
2021/06/04 02:00:59;;;;;;;8.73;4.40;;;;;;;19.26;69.83;100210.66;2220203;40;20133;-78
2021/06/04 02:02:35;;;;;;;7.28;4.68;;;;;;;19.27;69.67;100200.69;2214760;40;20044;-78
2021/06/04 02:04:08;;;;;;;6.55;3.88;;;;;;;19.26;69.59;100209.84;2216742;40;20044;-78
2021/06/04 02:05:41;;;;;;;7.53;3.95;;;;;;;19.31;68.95;100202.78;2215030;40;20139;-79
2021/06/04 02:07:18;;;;;;;8.82;4.10;;;;;;;19.33;68.72;100199.88;2213272;40;20247;-79
2021/06/04 02:08:52;;;;;;;7.45;3.67;;;;;;;19.41;68.44;100199.72;2214059;40;20421;-78
2021/06/04 02:10:29;;;;;;;7.70;4.10;;;;;;;19.51;67.90;100198.50;2215887;40;20114;-78
2021/06/04 02:12:00;;;;;;;5.22;3.67;;;;;;;19.57;67.57;100200.41;2221149;40;20033;-79
2021/06/04 02:13:33;;;;;;;7.07;4.20;;;;;;;19.56;67.33;100198.72;2216053;40;20049;-78
2021/06/04 02:15:10;;;;;;;7.25;4.05;;;;;;;19.46;67.38;100207.25;2214987;40;20083;-78
2021/06/04 02:16:54;;;;;;;5.30;3.67;;;;;;;19.46;67.46;100204.53;2213863;40;20045;-78
2021/06/04 02:18:33;;;;;;;7.15;4.60;;;;;;;19.48;67.35;100213.31;2213036;40;20034;-78
2021/06/04 02:20:15;;;;;;;6.30;3.55;;;;;;;19.36;67.74;100210.31;2214013;40;20045;-79
2021/06/04 02:21:55;;;;;;;5.72;3.90;;;;;;;19.28;68.15;100211.31;2210912;40;20034;-81
2021/06/04 02:23:29;;;;;;;6.15;3.78;;;;;;;19.26;68.07;100207.13;2215654;40;20029;-80
2021/06/04 02:25:08;;;;;;;6.00;4.43;;;;;;;19.13;68.55;100214.13;2219749;40;20033;-81
2021/06/04 02:26:44;;;;;;;5.85;3.92;;;;;;;19.01;68.86;100211.13;2221966;40;20033;-80
2021/06/04 02:28:24;;;;;;;6.20;3.70;;;;;;;18.99;68.89;100212.31;2217453;40;20155;-81
2021/06/04 02:30:01;;;;;;;7.70;3.72;;;;;;;18.96;69.08;100216.28;2217307;40;20091;-79
2021/06/04 02:31:38;;;;;;;9.43;4.13;;;;;;;18.94;69.24;100206.66;2218347;40;20098;-79
2021/06/04 02:33:15;;;;;;;5.85;4.00;;;;;;;18.92;69.38;100214.13;2221479;40;20056;-79
2021/06/04 02:34:49;;;;;;;6.80;4.00;;;;;;;18.89;69.12;100214.53;2214606;40;20409;-79
2021/06/04 02:36:25;;;;;;;5.70;4.25;;;;;;;18.86;69.31;100207.59;2220912;40;20053;-81
2021/06/04 02:38:01;;;;;;;8.20;4.40;;;;;;;18.85;69.21;100209.50;2217219;40;20529;-81
2021/06/04 02:39:36;;;;;;;7.10;3.80;;;;;;;18.83;69.41;100198.00;2220221;40;20413;-80
2021/06/04 02:41:11;;;;;;;5.70;3.38;;;;;;;18.85;69.37;100208.63;2212816;40;20026;-80
2021/06/04 02:42:45;;;;;;;6.97;4.38;;;;;;;18.85;69.58;100208.63;2213806;40;20132;-79
2021/06/04 02:44:21;;;;;;;6.25;4.10;;;;;;;18.81;69.55;100219.03;2218709;40;20044;-79
2021/06/04 02:45:59;;;;;;;5.40;4.03;;;;;;;18.77;69.61;100206.94;2218817;40;20114;-80
2021/06/04 02:47:33;;;;;;;5.93;3.42;;;;;;;18.74;69.46;100207.31;2213881;40;20026;-82
2021/06/04 02:49:06;;;;;;;6.25;3.80;;;;;;;18.73;69.37;100211.03;2211027;40;20030;-79
2021/06/04 02:50:41;;;;;;;7.35;3.92;;;;;;;18.73;69.30;100211.03;2213821;40;20037;-80
2021/06/04 02:52:28;;;;;;;5.10;3.75;;;;;;;18.71;69.44;100213.09;2212030;40;20053;-78
2021/06/04 02:54:04;;;;;;;5.53;3.40;;;;;;;18.74;69.43;100212.72;2216613;40;20033;-80
2021/06/04 02:55:35;;;;;;;5.32;3.90;;;;;;;18.81;69.43;100207.38;2212929;40;20519;-80
2021/06/04 02:57:10;;;;;;;7.07;3.90;;;;;;;18.84;69.03;100207.00;2215295;40;20044;-80
2021/06/04 02:58:44;;;;;;;6.32;4.35;;;;;;;18.81;69.13;100204.66;2213853;40;20029;-79
2021/06/04 03:00:22;;;;;;;8.63;4.10;;;;;;;18.80;69.39;100205.69;2215157;40;20061;-79
2021/06/04 03:01:57;;;;;;;6.78;4.18;;;;;;;18.78;69.13;100208.59;2212831;40;20047;-79
2021/06/04 03:03:29;;;;;;;8.15;3.90;;;;;;;18.80;69.04;100206.50;2215393;40;20080;-78
2021/06/04 03:05:04;;;;;;;6.55;3.75;;;;;;;18.79;69.56;100213.00;2215057;40;20045;-78
2021/06/04 03:06:38;;;;;;;5.30;3.60;;;;;;;18.76;69.43;100213.38;2215998;40;20045;-78
2021/06/04 03:08:10;;;;;;;6.80;4.53;;;;;;;18.68;69.87;100210.81;2208487;40;20131;-80
2021/06/04 03:09:43;;;;;;;6.88;3.85;;;;;;;18.62;70.11;100208.84;2211601;40;20030;-79
2021/06/04 03:11:17;;;;;;;6.10;4.35;;;;;;;18.58;70.01;100219.22;2219161;40;20401;-79
2021/06/04 03:12:49;;;;;;;8.60;5.22;;;;;;;18.49;70.42;100210.41;2219565;40;20029;-77
2021/06/04 03:14:21;;;;;;;5.47;3.92;;;;;;;18.42;70.66;100217.59;2209992;40;20057;-78
2021/06/04 03:15:57;;;;;;;6.38;4.38;;;;;;;18.44;70.64;100218.25;2213458;40;20032;-78
2021/06/04 03:17:34;;;;;;;6.13;4.00;;;;;;;18.43;70.96;100215.75;2219685;40;20468;-78
2021/06/04 03:19:10;;;;;;;7.53;3.63;;;;;;;18.42;70.87;100217.59;2211064;40;20528;-78
2021/06/04 03:20:44;;;;;;;7.90;3.92;;;;;;;18.38;70.91;100213.63;2207617;40;20034;-78
2021/06/04 03:22:26;;;;;;;8.27;4.07;;;;;;;18.37;71.05;100218.19;2211434;40;20314;-78
2021/06/04 03:23:58;;;;;;;5.80;3.95;;;;;;;18.44;70.77;100222.84;2214915;40;20365;-79
2021/06/04 03:25:32;;;;;;;5.57;3.45;;;;;;;18.48;70.37;100213.28;2214357;40;20081;-79
2021/06/04 03:27:05;;;;;;;7.00;3.72;;;;;;;18.54;70.35;100216.06;2214771;40;20058;-77
2021/06/04 03:28:40;;;;;;;6.80;3.50;;;;;;;18.60;70.21;100221.75;2215443;40;20045;-80
2021/06/04 03:30:12;;;;;;;5.70;3.58;;;;;;;18.67;69.59;100225.38;2220075;40;20053;-79
2021/06/04 03:31:47;;;;;;;6.40;3.33;;;;;;;18.74;69.60;100222.72;2210091;40;20046;-78
2021/06/04 03:33:23;;;;;;;4.35;2.95;;;;;;;18.80;69.11;100227.34;2207784;40;20049;-78
2021/06/04 03:34:54;;;;;;;5.15;3.50;;;;;;;18.79;69.24;100221.13;2215241;40;20049;-77
2021/06/04 03:36:30;;;;;;;6.70;3.92;;;;;;;18.83;68.76;100221.56;2219691;40;20037;-78
2021/06/04 03:38:02;;;;;;;6.43;3.13;;;;;;;18.75;68.97;100227.13;2216958;40;20625;-78
2021/06/04 03:39:37;;;;;;;8.10;3.63;;;;;;;18.61;69.05;100228.84;2220721;40;20053;-76
2021/06/04 03:41:08;;;;;;;5.88;3.58;;;;;;;18.46;69.61;100229.75;2213374;40;20064;-78
2021/06/04 03:42:47;;;;;;;7.20;3.80;;;;;;;18.34;69.78;100226.72;2214183;40;20044;-80
2021/06/04 03:44:25;;;;;;;6.65;4.05;;;;;;;18.23;70.00;100222.63;2213065;40;20123;-78
2021/06/04 03:45:56;;;;;;;5.03;3.50;;;;;;;18.13;70.47;100226.66;2209658;40;20030;-78
2021/06/04 03:47:28;;;;;;;6.88;4.18;;;;;;;18.12;70.43;100225.84;2199162;40;20127;-78
2021/06/04 03:49:01;;;;;;;7.00;4.68;;;;;;;18.06;70.74;100229.28;2219520;40;20329;-77
2021/06/04 03:50:32;;;;;;;7.28;4.15;;;;;;;18.06;70.94;100223.88;2220720;40;20033;-78
2021/06/04 03:52:06;;;;;;;6.63;3.85;;;;;;;18.08;71.15;100221.81;2219404;40;20384;-78
2021/06/04 03:53:38;;;;;;;5.30;3.38;;;;;;;18.10;70.87;100219.78;2220733;40;20048;-78
2021/06/04 03:55:11;;;;;;;6.32;3.80;;;;;;;18.13;70.80;100222.09;2212849;40;20045;-78
2021/06/04 03:56:43;;;;;;;7.60;3.60;;;;;;;18.20;70.76;100217.59;2209404;40;20034;-77
2021/06/04 03:58:14;;;;;;;6.07;3.60;;;;;;;18.23;70.30;100217.19;2208654;40;20037;-78
2021/06/04 03:59:47;;;;;;;7.25;4.13;;;;;;;18.32;70.43;100222.53;2215845;40;20046;-78
2021/06/04 04:01:26;;;;;;;6.18;3.95;;;;;;;18.33;69.88;100229.59;2212817;40;20523;-77
2021/06/04 04:02:57;;;;;;;7.95;5.28;;;;;;;18.30;70.28;100236.22;2216265;40;20056;-78
2021/06/04 04:04:30;;;;;;;5.57;3.88;;;;;;;18.25;70.44;100235.97;2215514;40;20056;-78
2021/06/04 04:06:02;;;;;;;7.72;4.50;;;;;;;18.24;70.18;100240.53;2214611;40;20145;-78
2021/06/04 04:07:33;;;;;;;8.02;4.57;;;;;;;18.23;70.20;100236.13;2200678;40;20048;-77
2021/06/04 04:09:05;;;;;;;5.93;4.00;;;;;;;18.20;70.23;100244.66;2220447;40;20393;-80
2021/06/04 04:10:36;;;;;;;6.75;3.67;;;;;;;18.18;70.31;100235.88;2219575;40;20033;-80
2021/06/04 04:12:09;;;;;;;7.00;4.28;;;;;;;18.15;70.25;100241.66;2222466;40;20110;-80
2021/06/04 04:13:40;;;;;;;5.35;3.92;;;;;;;18.13;70.33;100242.91;2211281;40;20575;-78
2021/06/04 04:15:17;;;;;;;6.10;3.70;;;;;;;18.14;70.34;100250.81;2217908;40;20310;-80
2021/06/04 04:16:48;;;;;;;6.53;3.40;;;;;;;18.13;70.28;100232.06;2215699;40;20030;-79
2021/06/04 04:18:20;;;;;;;7.05;4.35;;;;;;;18.16;70.48;100243.34;2217316;40;20042;-80
2021/06/04 04:19:52;;;;;;;6.38;4.32;;;;;;;18.18;70.22;100246.72;2155037;40;20041;-80
2021/06/04 04:21:24;;;;;;;10.13;5.35;;;;;;;18.19;70.54;100242.13;2204652;40;20040;-80
2021/06/04 04:22:56;;;;;;;5.28;4.07;;;;;;;18.19;70.25;100245.69;2212080;40;20041;-80
2021/06/04 04:24:33;;;;;;;9.00;4.38;;;;;;;18.22;70.58;100237.19;2216112;40;20066;-79
2021/06/04 04:26:05;;;;;;;6.55;4.82;;;;;;;18.22;70.35;100239.91;2209490;40;20049;-79
2021/06/04 04:27:36;;;;;;;6.57;4.38;;;;;;;18.24;70.37;100245.94;2215320;40;20057;-79
2021/06/04 04:29:08;;;;;;;7.18;4.30;;;;;;;18.22;70.11;100245.31;2215914;40;20574;-78
2021/06/04 04:30:39;;;;;;;7.10;4.32;;;;;;;18.23;70.31;100246.97;2218732;40;20065;-77
2021/06/04 04:32:13;;;;;;;6.22;4.43;;;;;;;18.26;70.34;100248.47;2218457;40;20138;-78
2021/06/04 04:33:45;;;;;;;9.35;4.38;;;;;;;18.28;70.13;100248.28;2219488;40;20049;-77
2021/06/04 04:35:22;;;;;;;8.20;4.47;;;;;;;18.33;70.30;100254.78;2212929;40;20037;-79
2021/06/04 04:36:56;;;;;;;6.03;3.95;;;;;;;18.37;69.82;100239.84;2210463;40;20033;-78
2021/06/04 04:38:27;;;;;;;5.63;3.58;;;;;;;18.44;69.66;100239.91;2213404;40;20041;-78
2021/06/04 04:39:58;;;;;;;5.05;3.20;;;;;;;18.48;69.44;100241.22;2209393;40;20042;-78
2021/06/04 04:41:30;;;;;;;6.95;3.65;;;;;;;18.52;69.56;100239.78;2209176;40;20124;-78
2021/06/04 04:43:01;;;;;;;5.55;3.53;;;;;;;18.53;68.99;100237.94;2211449;40;20049;-78
2021/06/04 04:44:36;;;;;;;7.68;4.57;;;;;;;18.58;69.07;100240.06;2215318;40;20045;-79
2021/06/04 04:46:10;;;;;;;5.82;3.50;;;;;;;18.59;69.03;100244.44;2213429;40;20048;-78
2021/06/04 04:47:41;;;;;;;7.18;4.05;;;;;;;18.61;68.62;100243.22;2221435;40;20393;-78
2021/06/04 04:49:12;;;;;;;5.60;3.55;;;;;;;18.61;68.46;100245.09;2215760;40;20330;-78
2021/06/04 04:50:45;;;;;;;7.45;4.28;;;;;;;18.56;68.74;100242.97;2209491;40;20420;-78
2021/06/04 04:52:18;;;;;;;7.65;4.28;;;;;;;18.53;68.71;100244.19;2213098;40;20107;-79
2021/06/04 04:53:50;;;;;;;7.25;4.32;;;;;;;18.53;68.91;100246.88;2218974;40;20131;-79
2021/06/04 04:55:24;;;;;;;7.63;4.55;;;;;;;18.54;68.75;100242.31;2217436;40;20096;-78
2021/06/04 04:56:56;;;;;;;7.10;4.13;;;;;;;18.58;68.46;100251.72;2215758;40;20061;-79
2021/06/04 04:58:27;;;;;;;8.88;5.07;;;;;;;18.59;68.77;100245.28;2212884;40;20045;-81
2021/06/04 04:59:58;;;;;;;6.88;5.32;;;;;;;18.62;68.35;100253.03;2209221;40;20041;-78
2021/06/04 05:01:30;;;;;;;7.50;4.53;;;;;;;18.64;68.51;100247.41;2211725;40;20041;-79
2021/06/04 05:03:02;;;;;;;7.38;5.28;;;;;;;18.65;68.51;100249.94;2215587;40;20029;-78
2021/06/04 05:04:34;;;;;;;9.35;5.80;;;;;;;18.63;68.82;100252.00;2212991;40;20052;-78
2021/06/04 05:06:11;;;;;;;7.25;6.00;;;;;;;18.62;68.57;100246.75;2210128;40;20100;-79
2021/06/04 05:07:42;;;;;;;10.07;6.55;;;;;;;18.60;69.02;100246.13;2209870;40;20049;-78
2021/06/04 05:09:13;;;;;;;7.70;5.53;;;;;;;18.60;69.13;100248.84;2209651;40;20089;-77
2021/06/04 05:10:45;;;;;;;8.25;4.55;;;;;;;18.60;68.98;100241.53;2211789;40;20112;-78
2021/06/04 05:12:17;;;;;;;8.68;5.03;;;;;;;18.61;69.12;100245.94;2217809;40;20025;-78
2021/06/04 05:13:49;;;;;;;10.45;4.28;;;;;;;18.63;68.88;100253.84;2220720;40;20428;-80
2021/06/04 05:15:23;;;;;;;8.65;4.60;;;;;;;18.64;68.95;100250.97;2218478;40;20022;-78
2021/06/04 05:16:54;;;;;;;7.80;4.13;;;;;;;18.63;68.92;100251.13;2214381;40;20104;-77
2021/06/04 05:18:26;;;;;;;7.32;4.15;;;;;;;18.62;68.70;100257.56;2217214;40;20037;-78
2021/06/04 05:19:58;;;;;;;8.75;4.13;;;;;;;18.65;68.59;100257.19;2214434;40;20056;-77
2021/06/04 05:21:30;;;;;;;8.98;3.90;;;;;;;18.64;68.37;100269.06;2218871;40;20069;-78
2021/06/04 05:23:03;;;;;;;8.27;4.18;;;;;;;18.66;68.04;100264.31;2220054;40;20041;-78
2021/06/04 05:24:35;;;;;;;11.15;4.38;;;;;;;18.65;68.22;100270.75;2220535;40;20033;-79
2021/06/04 05:26:07;;;;;;;5.72;3.80;;;;;;;18.70;68.24;100265.59;2213936;40;20050;-78
2021/06/04 05:27:39;;;;;;;7.60;4.70;;;;;;;18.75;67.91;100268.56;2219065;40;20044;-78
2021/06/04 05:29:10;;;;;;;7.20;3.85;;;;;;;18.76;67.69;100269.38;2220245;40;20048;-78
2021/06/04 05:30:44;;;;;;;6.57;4.30;;;;;;;18.79;67.81;100267.16;2217876;40;20372;-78
2021/06/04 05:32:17;;;;;;;6.40;4.00;;;;;;;18.84;67.65;100270.09;2214640;40;20049;-78
2021/06/04 05:33:52;;;;;;;6.93;3.85;;;;;;;18.91;67.64;100272.03;2215310;40;20036;-78
2021/06/04 05:35:25;;;;;;;4.95;3.60;;;;;;;18.97;67.32;100268.59;2218506;40;20060;-78
2021/06/04 05:36:57;;;;;;;6.13;4.13;;;;;;;19.07;67.16;100271.81;2214049;40;20556;-79
2021/06/04 05:38:28;;;;;;;5.13;3.72;;;;;;;19.14;66.62;100271.84;2219744;40;20033;-78
2021/06/04 05:40:00;;;;;;;6.32;3.92;;;;;;;19.18;66.39;100276.66;2218701;40;20060;-79
2021/06/04 05:41:32;;;;;;;6.18;3.60;;;;;;;19.28;66.32;100278.19;2215838;40;20034;-78
2021/06/04 05:43:04;;;;;;;6.22;3.70;;;;;;;19.36;65.98;100286.22;2213390;40;20025;-78
2021/06/04 05:44:38;;;;;;;7.45;4.82;;;;;;;19.40;65.64;100287.47;2220732;40;20064;-79
2021/06/04 05:46:13;;;;;;;5.97;3.92;;;;;;;19.40;65.68;100287.47;2217483;40;20508;-78
2021/06/04 05:47:45;;;;;;;8.07;4.05;;;;;;;19.31;65.88;100294.09;2214279;40;20034;-78
2021/06/04 05:49:17;;;;;;;7.20;4.00;;;;;;;19.23;66.15;100308.59;2214428;40;20065;-81
2021/06/04 05:50:52;;;;;;;6.88;4.45;;;;;;;19.22;66.42;100315.09;2214983;40;20318;-81
2021/06/04 05:52:25;;;;;;;10.00;4.03;;;;;;;19.17;66.59;100310.25;2214183;40;20069;-78
2021/06/04 05:53:56;;;;;;;8.32;4.70;;;;;;;19.17;66.62;100315.66;2213406;40;20087;-81
2021/06/04 05:55:30;;;;;;;12.23;4.53;;;;;;;19.18;66.84;100317.31;2211096;40;20050;-81
2021/06/04 05:57:02;;;;;;;7.10;4.32;;;;;;;19.22;66.64;100319.66;2213763;40;20061;-80
2021/06/04 05:58:33;;;;;;;9.27;4.00;;;;;;;19.26;66.86;100315.53;2217906;40;20049;-80
2021/06/04 06:00:08;;;;;;;7.18;4.57;;;;;;;19.32;66.75;100320.97;2219680;40;20025;-81
2021/06/04 06:01:40;;;;;;;7.82;4.55;;;;;;;19.31;67.04;100321.19;2220110;40;20548;-79
2021/06/04 06:03:14;;;;;;;9.30;4.82;;;;;;;19.28;67.22;100316.16;2221795;40;20100;-80
2021/06/04 06:04:45;;;;;;;9.52;4.80;;;;;;;19.25;67.49;100322.81;2220412;40;20052;-79
2021/06/04 06:06:17;;;;;;;8.30;4.80;;;;;;;19.26;67.90;100331.78;2220766;40;20022;-79
2021/06/04 06:07:49;;;;;;;7.00;4.47;;;;;;;19.33;67.60;100321.84;2218279;40;20115;-79
2021/06/04 06:09:21;;;;;;;15.90;5.72;;;;;;;19.41;67.37;100320.88;2219942;40;20030;-80
2021/06/04 06:10:53;;;;;;;20.38;5.80;;;;;;;19.50;67.38;100325.09;2218088;40;20490;-79
2021/06/04 06:12:24;;;;;;;11.02;4.45;;;;;;;19.53;67.28;100321.97;2220122;40;20135;-78
2021/06/04 06:13:58;;;;;;;8.95;3.88;;;;;;;19.59;67.10;100323.91;2218030;40;20048;-78
2021/06/04 06:15:32;;;;;;;8.02;3.92;;;;;;;19.70;66.63;100321.66;2221219;40;20041;-79
2021/06/04 06:17:03;;;;;;;10.95;4.78;;;;;;;19.75;66.45;100328.19;2213924;40;20073;-78
2021/06/04 06:18:35;;;;;;;8.65;4.75;;;;;;;19.69;66.63;100318.13;2215335;40;20037;-77
2021/06/04 06:20:09;;;;;;;10.82;5.75;;;;;;;19.61;66.86;100321.00;2218227;40;20037;-79
2021/06/04 06:21:42;;;;;;;8.88;5.40;;;;;;;19.52;67.17;100331.16;2221542;40;20033;-79
2021/06/04 06:23:16;;;;;;;7.13;4.85;;;;;;;19.54;67.40;100331.78;2217684;40;20037;-79
2021/06/04 06:24:48;;;;;;;53.65;11.65;;;;;;;19.60;67.26;100330.16;2219559;40;20573;-79
2021/06/04 06:26:23;;;;;;;24.95;6.95;;;;;;;19.62;67.50;100334.34;2221232;40;20517;-79
2021/06/04 06:27:54;;;;;;;42.60;9.05;;;;;;;19.59;67.34;100336.63;2222112;40;20041;-79
2021/06/04 06:29:29;;;;;;;20.40;6.97;;;;;;;19.59;67.42;100328.50;2212999;40;20045;-79
2021/06/04 06:31:01;;;;;;;9.40;5.68;;;;;;;19.55;67.47;100327.22;2215212;40;20033;-80
2021/06/04 06:32:33;;;;;;;12.23;6.72;;;;;;;19.57;67.79;100325.13;2221898;40;20420;-79
2021/06/04 06:34:05;;;;;;;8.88;5.78;;;;;;;19.68;67.53;100324.59;2220984;40;20397;-79
2021/06/04 06:35:39;;;;;;;9.73;5.55;;;;;;;19.79;67.18;100331.31;2221493;40;20056;-79
2021/06/04 06:37:10;;;;;;;8.38;4.72;;;;;;;19.84;67.03;100333.47;2217669;40;20243;-79
2021/06/04 06:38:43;;;;;;;9.00;5.45;;;;;;;19.91;67.12;100321.63;2214346;40;20057;-78
2021/06/04 06:40:14;;;;;;;5.75;4.45;;;;;;;20.04;66.57;100323.59;2213252;40;20424;-79
2021/06/04 06:41:47;;;;;;;7.60;4.65;;;;;;;20.10;66.51;100327.38;2215615;40;20295;-79
2021/06/04 06:43:21;;;;;;;8.23;4.82;;;;;;;20.20;66.17;100332.44;2215481;40;20045;-79
2021/06/04 06:44:52;;;;;;;7.30;4.90;;;;;;;20.25;65.86;100327.25;2219619;40;20045;-78
2021/06/04 06:46:26;;;;;;;9.25;5.70;;;;;;;20.31;65.93;100321.00;2218836;40;20056;-79
2021/06/04 06:47:58;;;;;;;9.02;5.35;;;;;;;20.37;65.66;100320.22;2221517;40;20369;-79
2021/06/04 06:49:29;;;;;;;6.43;4.82;;;;;;;20.44;65.25;100328.38;2220083;40;20052;-79
2021/06/04 06:51:01;;;;;;;8.07;6.28;;;;;;;20.52;65.27;100321.91;2221555;40;20037;-79
2021/06/04 06:52:33;;;;;;;7.32;4.57;;;;;;;20.56;65.26;100317.75;2217418;40;20048;-78
2021/06/04 06:54:08;;;;;;;6.55;4.85;;;;;;;20.58;65.10;100324.66;2221030;40;20045;-79
2021/06/04 06:55:42;;;;;;;6.53;4.63;;;;;;;20.62;64.97;100322.38;2218891;40;20041;-80
2021/06/04 06:57:13;;;;;;;8.50;4.90;;;;;;;20.65;64.78;100321.13;2218342;40;20049;-79
2021/06/04 06:58:45;;;;;;;8.10;5.97;;;;;;;20.66;64.64;100318.22;2217312;40;20042;-78
2021/06/04 07:00:21;;;;;;;8.65;4.65;;;;;;;20.68;64.86;100318.00;2222497;40;20044;-78
2021/06/04 07:01:52;;;;;;;10.30;6.03;;;;;;;20.70;64.96;100313.19;2218843;40;21116;-78
2021/06/04 07:03:27;;;;;;;9.95;5.93;;;;;;;20.69;64.86;100311.53;2220454;40;20056;-79
2021/06/04 07:04:59;;;;;;;9.05;5.32;;;;;;;20.76;64.64;100309.69;2214690;40;20715;-79
2021/06/04 07:06:34;;;;;;;8.95;4.35;;;;;;;20.85;64.09;100315.78;2214974;40;20045;-78
2021/06/04 07:08:08;;;;;;;8.90;6.07;;;;;;;20.99;64.07;100305.78;2213764;40;20048;-78
2021/06/04 07:09:41;;;;;;;8.35;4.90;;;;;;;21.05;63.89;100315.78;2208577;40;20034;-79
2021/06/04 07:11:12;;;;;;;7.95;5.45;;;;;;;21.09;63.76;100321.66;2209256;40;20467;-79
2021/06/04 07:12:44;;;;;;;11.40;5.32;;;;;;;21.10;63.75;100315.16;2215737;40;20512;-79
2021/06/04 07:14:15;;;;;;;8.32;5.15;;;;;;;21.14;63.75;100311.00;2213740;40;20045;-78
2021/06/04 07:15:46;;;;;;;7.97;5.00;;;;;;;21.18;63.66;100309.53;2213931;40;20135;-78
2021/06/04 07:17:18;;;;;;;8.57;5.80;;;;;;;21.19;63.41;100316.63;2220621;40;20037;-79